Airfield :







YOU CAN JOIN US ON...

 
LOGIN :

Register | Disclaimer

   EN    FR    IT 

 









Legend :    VFR   Marginal VFR   IFR   Intensive IFR   Very Intensive IFR
Visi :
Ceiling :
>= 8 km
>= 3000ft
5 to 8 km
1000 to 3000 ft
1500m to 5 km
500 to 1000 ft
800 to 1500m
200 to 500 ft
< 800m
< 200 ft
Symbols :   Thunderstorms  Fog  Heavy snow  Heavy precipitations  Wind > 20 kt






- Airport Elevation : 1005 ft
- IATA code : YAH


CYAH - La Grande-4

CURRENT METAR :
  • 121809Z AUTO 22012G17KT 9SM FEW009 SCT040 SCT055 SCT077 M25/M30 A3017 RMK SLP263

EXPIRED METARs :
  • 121800Z AUTO 23011G17KT 9SM -SN FEW009 SCT032 SCT043 M25/M30 A3017 RMK SLP262
  • 121744Z AUTO 22013G18KT 8SM BKN041 M25/M30 A3017 RMK SLP261
  • 121700Z AUTO 22010KT 2 1/2SM -SN FEW030 OVC037 M26/M30 A3016 RMK SLP258
  • 121636Z AUTO 22009KT 2 1/4SM -SN BKN037 OVC049 M26/M30 A3016 RMK SLP258
  • 121620Z AUTO 22010KT 3SM -SN BKN035 OVC050 M26/M30 A3016 RMK SLP258
  • 121606Z AUTO 22009KT 2 1/2SM -SN FEW016 BKN025 BKN034 OVC080 M27/M31 A3016 RMK SLP258
  • 121544Z AUTO 23009KT 4SM -SN SCT018 BKN024 OVC033 M27/M31 A3015 RMK SLP257
  • 121536Z AUTO 22009KT 5SM HZ FEW016 OVC032 M27/M31 A3015 RMK SLP257

TAF TAF CYAH
Valid from the 12 at 18:00 until the 12 at 22:00 UTC


121741Z 1218/1222 22012G22KT P6SM -SHSN SCT020 BKN040
TEMPO 1218/1222 21/2SM -SHSN BKN020 OVC040 RMK FCST BASED ON AUTO OBS. NXT FCST WILL BE ISSUED AT 131145Z



MET'MAP, your aeronautical weather chart ! - Copyright ORBIFLY December 2007 - Disclaimer

ORBIFLY MET'MAP TEAM :

Programming & Development : Alexandra Zaïnal
Concept & original design : Baudouin d'Aumeries
Assistance for programming : Marc-Olivier Méhu
Technical & hardware support : Manuel Goepfert

Contact : metmap@orbifly.com




SOURCES & CREDITS :

   NOAA